Time;durP1;ratioP1;P1;durP2;ratioP2;P2;SDS_P1;SDS_P2;PMS_P1;PMS_P2;Temp;Humidity;BMP_temperature;BMP_pressure;BME280_temperature;BME280_humidity;BME280_pressure;Samples;Min_cycle;Max_cycle;Signal;HPM_P1;HPM_P2
2022/10/03 00:00:39;;;;;;;16.55;3.15;;;9.50;99.90;;;;;;5076214;28;20051;-42
2022/10/03 00:03:46;;;;;;;15.20;3.30;;;9.60;99.90;;;;;;5071839;28;20052;-43
2022/10/03 00:06:50;;;;;;;14.30;3.22;;;9.50;99.90;;;;;;5044974;28;20511;-42
2022/10/03 00:09:26;;;;;;;10.27;2.72;;;9.50;99.90;;;;;;5033663;28;20049;-42
2022/10/03 00:12:03;;;;;;;10.13;2.42;;;9.30;99.90;;;;;;5074271;28;20117;-42
2022/10/03 00:14:47;;;;;;;14.10;2.75;;;9.30;99.90;;;;;;5056419;28;20055;-43
2022/10/03 00:17:36;;;;;;;13.55;2.90;;;9.30;99.90;;;;;;5080750;28;20052;-43
2022/10/03 00:20:15;;;;;;;15.50;2.90;;;9.30;99.90;;;;;;5082087;28;20132;-42
2022/10/03 00:22:52;;;;;;;20.70;3.60;;;9.30;99.90;;;;;;5078380;28;20075;-42
2022/10/03 00:25:51;;;;;;;19.00;3.45;;;9.40;99.90;;;;;;5076340;28;20042;-43
2022/10/03 00:28:41;;;;;;;17.63;3.22;;;9.40;99.90;;;;;;5076778;28;20071;-43
2022/10/03 00:31:15;;;;;;;16.65;3.22;;;9.50;99.90;;;;;;5075821;28;20044;-43
2022/10/03 00:34:06;;;;;;;11.73;2.50;;;9.50;99.90;;;;;;5075871;28;20072;-42
2022/10/03 00:36:54;;;;;;;12.00;2.38;;;9.40;99.90;;;;;;5090134;28;20103;-43
2022/10/03 00:39:20;;;;;;;10.68;2.70;;;9.40;99.90;;;;;;5076808;28;20277;-43
2022/10/03 00:42:31;;;;;;;12.70;2.92;;;9.30;99.90;;;;;;5078942;28;20519;-42
2022/10/03 00:44:57;;;;;;;16.98;2.80;;;9.30;99.90;;;;;;5072763;28;20090;-42
2022/10/03 00:47:48;;;;;;;10.02;2.75;;;9.30;99.90;;;;;;5072453;28;20040;-42
2022/10/03 00:50:45;;;;;;;11.50;3.13;;;9.30;99.90;;;;;;5053075;28;20040;-55
2022/10/03 00:53:24;;;;;;;27.55;4.03;;;9.30;99.90;;;;;;5076504;28;20048;-55
2022/10/03 00:56:06;;;;;;;22.45;3.55;;;9.30;99.90;;;;;;5075399;28;20052;-56
2022/10/03 00:59:02;;;;;;;21.23;3.75;;;9.30;99.90;;;;;;5078512;28;20082;-56
2022/10/03 01:01:27;;;;;;;14.75;4.00;;;9.30;99.90;;;;;;5069356;28;20052;-41
2022/10/03 01:04:26;;;;;;;14.80;3.78;;;9.40;99.90;;;;;;5076341;28;20052;-43
2022/10/03 01:07:18;;;;;;;13.90;3.42;;;9.40;99.90;;;;;;5078021;28;20730;-43
2022/10/03 01:09:45;;;;;;;18.08;3.30;;;9.40;99.90;;;;;;5073458;28;20086;-41
2022/10/03 01:12:32;;;;;;;13.65;3.13;;;9.40;99.90;;;;;;5026333;28;20050;-44
2022/10/03 01:15:01;;;;;;;12.82;3.53;;;9.40;99.90;;;;;;5040327;28;20040;-44
2022/10/03 01:18:07;;;;;;;17.77;3.63;;;9.30;99.90;;;;;;5070007;28;20205;-44
2022/10/03 01:21:17;;;;;;;15.85;3.30;;;9.40;99.90;;;;;;5040891;28;20625;-43
2022/10/03 01:24:08;;;;;;;9.50;2.55;;;9.30;99.90;;;;;;5075619;28;20691;-43
2022/10/03 01:26:52;;;;;;;7.60;2.03;;;9.20;99.90;;;;;;5073771;28;20464;-56
2022/10/03 01:32:43;;;;;;;11.15;2.65;;;9.10;99.90;;;;;;5070869;28;20051;-55
2022/10/03 01:35:35;;;;;;;12.80;3.15;;;9.10;99.90;;;;;;5093342;28;20117;-55
2022/10/03 01:38:09;;;;;;;15.57;3.40;;;9.10;99.90;;;;;;5071119;28;20040;-55
2022/10/03 01:41:02;;;;;;;14.15;3.78;;;9.10;99.90;;;;;;5073746;28;20052;-56
2022/10/03 01:44:12;;;;;;;9.70;2.22;;;9.10;99.90;;;;;;5050512;28;20593;-55
2022/10/03 01:47:05;;;;;;;16.33;3.63;;;9.10;99.90;;;;;;5051545;28;20079;-57
2022/10/03 01:49:45;;;;;;;15.55;3.63;;;9.10;99.90;;;;;;5071980;28;20036;-55
2022/10/03 01:52:40;;;;;;;13.30;3.50;;;9.10;99.90;;;;;;5073950;28;20056;-53
2022/10/03 01:55:13;;;;;;;14.20;3.55;;;9.10;99.90;;;;;;5076975;28;20113;-55
2022/10/03 01:58:10;;;;;;;11.55;3.83;;;9.00;99.90;;;;;;5071614;28;20048;-54
2022/10/03 02:01:09;;;;;;;6.50;2.55;;;9.00;99.90;;;;;;5070975;28;20850;-55
2022/10/03 02:03:45;;;;;;;11.48;2.83;;;9.00;99.90;;;;;;5072709;28;20047;-41
2022/10/03 02:06:53;;;;;;;14.10;3.17;;;9.00;99.90;;;;;;5072585;28;20055;-43
2022/10/03 02:09:57;;;;;;;7.22;2.28;;;9.00;99.90;;;;;;5028639;28;20955;-43
2022/10/03 02:13:07;;;;;;;13.60;3.38;;;8.90;99.90;;;;;;5067212;28;20051;-42
2022/10/03 02:15:43;;;;;;;11.05;2.50;;;8.90;99.90;;;;;;5060587;28;20105;-56
2022/10/03 02:18:12;;;;;;;12.50;2.92;;;8.80;99.90;;;;;;5074511;28;20510;-54
2022/10/03 02:21:09;;;;;;;12.65;2.95;;;8.90;99.90;;;;;;5074381;28;20052;-54
2022/10/03 02:23:37;;;;;;;13.60;2.40;;;8.80;99.90;;;;;;5071249;28;20051;-41
2022/10/03 02:26:06;;;;;;;14.77;2.20;;;8.70;99.90;;;;;;5071240;28;20720;-45
2022/10/03 02:28:49;;;;;;;8.27;2.25;;;8.70;99.90;;;;;;5053067;28;20205;-42
2022/10/03 02:31:31;;;;;;;9.38;2.20;;;8.70;99.90;;;;;;5064591;28;20059;-41
2022/10/03 02:33:57;;;;;;;;;;;8.70;99.90;;;;;;5071617;28;20044;-55
2022/10/03 02:36:31;;;;;;;10.02;2.10;;;8.70;99.90;;;;;;5074259;28;19927;-55
2022/10/03 02:39:12;;;;;;;12.60;2.40;;;8.70;99.90;;;;;;5071886;28;20934;-53
2022/10/03 02:42:18;;;;;;;7.78;2.05;;;8.80;99.90;;;;;;5049219;28;20082;-55
2022/10/03 02:44:50;;;;;;;13.90;2.92;;;8.80;99.90;;;;;;5065381;28;20120;-56
2022/10/03 02:47:22;;;;;;;;;;;8.90;99.90;;;;;;5078065;28;20056;-55
2022/10/03 02:50:32;;;;;;;9.02;3.30;;;9.00;99.90;;;;;;5039554;28;19927;-54
2022/10/03 02:53:33;;;;;;;16.73;3.42;;;9.00;99.90;;;;;;5047899;28;20048;-56
2022/10/03 02:56:14;;;;;;;12.75;2.95;;;9.10;99.90;;;;;;5074909;28;20126;-42
2022/10/03 02:59:01;;;;;;;12.23;3.78;;;9.10;99.90;;;;;;5071293;28;20541;-42
2022/10/03 03:02:24;;;;;;;13.20;3.38;;;9.20;99.90;;;;;;5071185;28;20133;-45
2022/10/03 03:05:11;;;;;;;9.60;3.00;;;9.30;99.90;;;;;;5014950;28;20045;-41
2022/10/03 03:08:13;;;;;;;16.48;3.38;;;9.40;99.90;;;;;;5008355;28;20540;-56
2022/10/03 03:10:52;;;;;;;12.95;2.58;;;9.50;99.90;;;;;;5067101;28;20820;-56
2022/10/03 03:13:49;;;;;;;16.02;3.45;;;9.50;99.90;;;;;;5055138;28;20077;-56
2022/10/03 03:17:00;;;;;;;13.55;4.38;;;9.60;99.90;;;;;;5057034;28;20102;-41
2022/10/03 03:19:31;;;;;;;18.95;3.60;;;9.60;99.90;;;;;;5077423;28;20627;-42
2022/10/03 03:22:36;;;;;;;13.02;3.08;;;9.70;99.90;;;;;;5076438;28;20064;-41
2022/10/03 03:25:27;;;;;;;14.55;3.08;;;9.70;99.90;;;;;;5069782;28;20059;-41
2022/10/03 03:28:02;;;;;;;15.33;3.07;;;9.60;99.90;;;;;;5066878;28;20048;-56
2022/10/03 03:30:43;;;;;;;12.20;3.42;;;9.60;99.90;;;;;;5069341;28;20496;-55
2022/10/03 03:33:20;;;;;;;13.13;2.80;;;9.60;99.90;;;;;;5088137;28;20048;-41
2022/10/03 03:36:06;;;;;;;12.70;2.88;;;9.50;99.90;;;;;;5070029;28;20043;-41
2022/10/03 03:38:59;;;;;;;15.50;3.10;;;9.50;99.90;;;;;;5072689;28;20047;-55
2022/10/03 03:41:44;;;;;;;16.98;3.35;;;9.40;99.90;;;;;;5050399;28;20052;-44
2022/10/03 03:44:13;;;;;;;9.68;2.97;;;9.30;99.90;;;;;;5072165;28;20044;-56
2022/10/03 03:47:19;;;;;;;9.73;2.30;;;9.30;99.90;;;;;;5051638;28;20048;-55
2022/10/03 03:50:16;;;;;;;12.80;2.85;;;9.20;99.90;;;;;;5052941;28;20893;-56
2022/10/03 03:53:17;;;;;;;10.40;2.13;;;9.20;99.90;;;;;;5075699;28;20369;-56
2022/10/03 03:55:52;;;;;;;10.38;2.58;;;9.00;99.90;;;;;;5071331;28;20052;-44
2022/10/03 03:58:36;;;;;;;10.10;2.72;;;9.00;99.90;;;;;;5076166;28;20047;-45
2022/10/03 04:01:12;;;;;;;15.23;2.80;;;9.00;99.90;;;;;;5048931;28;20049;-43
2022/10/03 04:03:53;;;;;;;8.00;2.10;;;8.90;99.90;;;;;;5069140;28;20052;-39
2022/10/03 04:06:34;;;;;;;11.60;2.70;;;8.80;99.90;;;;;;5040205;28;20059;-44
2022/10/03 04:09:07;;;;;;;11.43;2.22;;;8.80;99.90;;;;;;5077451;28;20696;-55
2022/10/03 04:11:36;;;;;;;14.32;3.30;;;8.80;99.90;;;;;;5073712;28;20052;-54
2022/10/03 04:14:22;;;;;;;11.07;2.60;;;8.70;99.90;;;;;;5071894;28;20136;-55
2022/10/03 04:19:47;;;;;;;11.77;2.55;;;8.70;99.90;;;;;;5075197;28;20557;-54
2022/10/03 04:22:35;;;;;;;9.32;2.30;;;8.60;99.90;;;;;;5076818;28;20577;-54
2022/10/03 04:25:28;;;;;;;7.15;2.13;;;8.60;99.90;;;;;;5067567;28;20044;-55
2022/10/03 04:28:06;;;;;;;9.38;2.15;;;8.50;99.90;;;;;;5068300;28;20135;-55
2022/10/03 04:31:18;;;;;;;10.60;2.55;;;8.50;99.90;;;;;;5075819;28;20040;-55
2022/10/03 04:33:53;;;;;;;10.02;2.28;;;8.50;99.90;;;;;;5051864;28;20055;-55
2022/10/03 04:36:54;;;;;;;6.72;2.17;;;8.40;99.90;;;;;;5072498;28;20052;-55
2022/10/03 04:39:55;;;;;;;12.23;2.67;;;8.30;99.90;;;;;;5055353;28;20048;-43
2022/10/03 04:42:40;;;;;;;12.15;3.30;;;8.40;99.90;;;;;;5073997;28;20056;-42
2022/10/03 04:45:35;;;;;;;12.15;2.95;;;8.50;99.90;;;;;;5071559;28;20111;-42
2022/10/03 04:48:01;;;;;;;13.18;2.92;;;8.50;99.90;;;;;;5079299;28;20140;-43
2022/10/03 04:50:49;;;;;;;14.93;3.15;;;8.50;99.90;;;;;;5077453;28;20499;-45
2022/10/03 04:53:22;;;;;;;12.38;2.95;;;8.50;99.90;;;;;;5077298;28;20532;-42
2022/10/03 04:56:03;;;;;;;15.82;3.72;;;8.50;99.90;;;;;;5073598;28;20152;-44
2022/10/03 04:58:39;;;;;;;9.75;3.38;;;8.50;99.90;;;;;;5094169;28;20109;-43
2022/10/03 05:01:32;;;;;;;7.13;2.80;;;8.40;99.90;;;;;;5075972;28;20056;-43
2022/10/03 05:04:30;;;;;;;13.18;2.85;;;8.40;99.90;;;;;;5074018;28;20052;-42
2022/10/03 05:07:28;;;;;;;6.60;2.67;;;8.20;99.90;;;;;;5058170;28;20056;-43
2022/10/03 05:10:29;;;;;;;5.82;2.15;;;8.20;99.90;;;;;;5076663;28;20056;-45
2022/10/03 05:13:10;;;;;;;8.70;1.80;;;8.10;99.90;;;;;;5071366;28;20059;-44
2022/10/03 05:16:03;;;;;;;7.18;2.28;;;8.10;99.90;;;;;;5076068;28;20052;-43
2022/10/03 05:18:54;;;;;;;12.07;2.78;;;8.10;99.90;;;;;;5067737;28;20108;-54
2022/10/03 05:21:29;;;;;;;8.15;2.53;;;8.10;99.90;;;;;;5024934;28;20047;-54
2022/10/03 05:24:25;;;;;;;6.95;2.08;;;8.10;99.90;;;;;;5047893;28;20083;-53
2022/10/03 05:27:12;;;;;;;11.35;2.83;;;8.10;99.90;;;;;;5057778;28;20707;-54
2022/10/03 05:29:51;;;;;;;7.80;2.15;;;8.10;99.90;;;;;;5071230;28;20044;-54
2022/10/03 05:32:32;;;;;;;6.80;2.20;;;8.10;99.90;;;;;;5076870;28;20056;-54
2022/10/03 05:35:17;;;;;;;11.02;1.95;;;8.10;99.90;;;;;;5079331;28;20055;-44
2022/10/03 05:38:09;;;;;;;5.90;2.00;;;8.00;99.90;;;;;;5078292;28;20605;-43
2022/10/03 05:40:39;;;;;;;;;;;8.00;99.90;;;;;;5039641;28;20045;-43
2022/10/03 05:43:21;;;;;;;6.50;1.65;;;8.00;99.90;;;;;;5075052;28;20046;-46
2022/10/03 05:45:59;;;;;;;3.90;1.90;;;7.90;99.90;;;;;;5077024;28;20054;-42
2022/10/03 05:48:28;;;;;;;7.63;2.40;;;7.90;99.90;;;;;;5078617;28;20051;-44
2022/10/03 05:51:20;;;;;;;9.65;2.22;;;8.00;99.90;;;;;;5072970;28;20063;-45
2022/10/03 05:53:52;;;;;;;8.13;2.33;;;8.00;99.90;;;;;;5072993;28;20503;-54
2022/10/03 05:56:18;;;;;;;9.82;2.85;;;8.00;99.90;;;;;;5055016;28;20058;-43
2022/10/03 05:59:22;;;;;;;7.65;2.60;;;8.00;99.90;;;;;;5080928;28;20071;-41
2022/10/03 06:02:06;;;;;;;9.93;3.08;;;8.00;99.90;;;;;;5090449;28;20119;-46
2022/10/03 06:05:10;;;;;;;11.45;3.30;;;8.10;99.90;;;;;;5032629;28;20076;-44
2022/10/03 06:07:59;;;;;;;11.88;3.15;;;8.20;99.90;;;;;;5079173;28;20439;-42
2022/10/03 06:10:44;;;;;;;7.15;3.17;;;8.20;99.90;;;;;;5076281;28;20047;-43
2022/10/03 06:13:25;;;;;;;9.52;2.80;;;8.20;99.90;;;;;;5074724;28;20048;-44
2022/10/03 06:15:54;;;;;;;7.80;2.65;;;8.20;99.90;;;;;;5057424;28;20067;-42
2022/10/03 06:18:54;;;;;;;6.82;2.00;;;8.20;99.90;;;;;;5074425;28;20051;-43
2022/10/03 06:22:13;;;;;;;10.40;3.15;;;8.20;99.90;;;;;;5057027;28;20054;-45
2022/10/03 06:25:13;;;;;;;13.65;2.72;;;8.20;99.90;;;;;;5078670;28;20530;-51
2022/10/03 06:27:58;;;;;;;11.98;3.22;;;8.30;99.90;;;;;;5057479;28;20082;-52
2022/10/03 06:30:45;;;;;;;7.38;3.53;;;8.40;99.90;;;;;;5077780;28;20609;-53
2022/10/03 06:33:29;;;;;;;9.98;3.15;;;8.50;99.90;;;;;;5060072;28;20077;-50
2022/10/03 06:36:06;;;;;;;6.43;2.97;;;8.60;99.90;;;;;;5075295;28;20043;-53
2022/10/03 06:39:14;;;;;;;11.90;3.88;;;8.60;99.90;;;;;;5078084;28;20188;-52
2022/10/03 06:42:03;;;;;;;11.40;3.08;;;8.70;99.90;;;;;;5051323;28;20067;-53
2022/10/03 06:45:00;;;;;;;12.05;3.20;;;8.80;99.90;;;;;;5078326;28;20069;-54
2022/10/03 06:47:41;;;;;;;11.52;2.80;;;8.90;99.90;;;;;;5072115;28;20135;-53
2022/10/03 06:50:35;;;;;;;9.07;2.70;;;9.00;99.90;;;;;;5055872;28;20044;-50
2022/10/03 06:53:20;;;;;;;12.57;4.03;;;9.10;99.90;;;;;;5070425;28;20537;-53
2022/10/03 06:56:19;;;;;;;14.60;3.42;;;9.20;99.90;;;;;;5064784;28;20052;-52
2022/10/03 06:59:10;;;;;;;15.52;3.95;;;9.50;99.90;;;;;;5052624;28;20521;-53
2022/10/03 07:02:05;;;;;;;8.75;2.40;;;9.80;99.90;;;;;;5068060;28;20510;-53
2022/10/03 07:04:46;;;;;;;12.23;3.38;;;10.10;99.90;;;;;;5068840;28;20048;-53
2022/10/03 07:07:31;;;;;;;8.00;2.07;;;10.50;99.90;;;;;;5070272;28;20462;-51
2022/10/03 07:10:09;;;;;;;12.45;2.05;;;10.90;99.90;;;;;;5057492;28;20160;-53
2022/10/03 07:13:05;;;;;;;10.02;2.17;;;11.20;99.90;;;;;;5053486;28;20056;-52
2022/10/03 07:16:01;;;;;;;10.65;1.67;;;11.50;99.90;;;;;;5056137;28;20044;-51
2022/10/03 07:18:33;;;;;;;9.82;1.92;;;11.80;99.90;;;;;;5052214;28;20048;-54
2022/10/03 07:21:38;;;;;;;7.90;1.75;;;12.10;99.90;;;;;;5073959;28;20040;-53
2022/10/03 07:24:40;;;;;;;7.97;1.83;;;12.40;99.90;;;;;;5057358;28;20063;-44
2022/10/03 07:27:24;;;;;;;9.13;1.83;;;12.70;99.90;;;;;;5073279;28;20212;-44
2022/10/03 07:30:20;;;;;;;7.57;1.90;;;13.10;99.90;;;;;;5074178;28;20055;-54
2022/10/03 07:33:11;;;;;;;7.60;1.70;;;13.40;99.90;;;;;;5048493;28;20048;-53
2022/10/03 07:38:58;;;;;;;7.65;1.70;;;14.00;99.90;;;;;;5069766;28;20501;-54
2022/10/03 07:42:10;;;;;;;9.43;1.80;;;14.30;99.90;;;;;;5066114;28;20040;-54
2022/10/03 07:45:02;;;;;;;9.00;1.55;;;14.60;99.90;;;;;;5066804;28;20059;-52
2022/10/03 07:48:12;;;;;;;7.45;1.73;;;15.10;99.90;;;;;;5052582;28;20083;-53
2022/10/03 07:50:41;;;;;;;7.57;1.90;;;15.50;99.90;;;;;;5074422;28;20040;-43
2022/10/03 07:53:52;;;;;;;6.95;2.22;;;16.10;99.90;;;;;;5061184;28;20078;-42
2022/10/03 07:56:38;;;;;;;8.27;1.70;;;16.60;99.90;;;;;;5049439;28;20830;-44
2022/10/03 07:59:04;;;;;;;8.75;1.20;;;17.10;99.90;;;;;;5070176;28;20564;-46
2022/10/03 08:01:36;;;;;;;8.80;1.73;;;17.60;99.90;;;;;;5070324;28;20056;-44
2022/10/03 08:04:02;;;;;;;9.07;1.60;;;17.80;99.90;;;;;;5072043;28;21746;-42
2022/10/03 08:06:42;;;;;;;6.03;1.67;;;18.30;99.90;;;;;;5061943;28;20126;-43
2022/10/03 08:09:27;;;;;;;6.28;1.67;;;18.40;99.90;;;;;;5079653;28;20161;-44
2022/10/03 08:12:40;;;;;;;6.22;1.38;;;18.90;99.90;;;;;;5072036;28;20048;-44
2022/10/03 08:15:25;;;;;;;6.45;1.40;;;19.10;99.90;;;;;;5051354;28;20484;-54
2022/10/03 08:18:33;;;;;;;8.43;1.45;;;19.70;99.90;;;;;;5068732;28;20080;-47
2022/10/03 08:21:38;;;;;;;5.78;1.55;;;19.80;99.90;;;;;;5067323;28;20044;-55
2022/10/03 08:24:07;;;;;;;6.28;1.50;;;19.80;99.90;;;;;;5073688;28;20052;-56
2022/10/03 08:27:10;;;;;;;8.20;1.50;;;20.40;99.90;;;;;;5073171;28;20669;-57
2022/10/03 08:30:02;;;;;;;7.75;1.50;;;20.60;99.90;;;;;;5039954;28;20044;-57
2022/10/03 08:32:47;;;;;;;;;;;20.70;99.90;;;;;;5074302;28;20131;-56
2022/10/03 08:35:44;;;;;;;5.55;1.23;;;20.60;99.90;;;;;;5071315;28;20036;-56
2022/10/03 08:38:19;;;;;;;6.05;1.55;;;21.10;99.90;;;;;;5057225;28;20123;-56
2022/10/03 08:41:12;;;;;;;5.65;1.30;;;21.00;99.90;;;;;;5072415;28;20101;-57
2022/10/03 08:44:03;;;;;;;5.28;1.33;;;21.30;99.90;;;;;;5073697;28;20852;-57
2022/10/03 08:46:36;;;;;;;8.30;1.85;;;21.30;99.90;;;;;;5068604;28;20062;-55
2022/10/03 08:49:40;;;;;;;8.68;1.50;;;21.30;99.90;;;;;;5070480;28;20151;-57
2022/10/03 08:52:37;;;;;;;7.43;1.40;;;21.50;99.90;;;;;;5069549;28;20055;-57
2022/10/03 08:55:25;;;;;;;7.55;1.80;;;21.60;99.90;;;;;;5069276;28;20496;-57
2022/10/03 08:58:12;;;;;;;4.70;1.30;;;21.70;99.90;;;;;;5075034;28;20105;-57
2022/10/03 09:00:45;;;;;;;6.55;1.58;;;22.00;99.90;;;;;;5060035;28;20147;-57
2022/10/03 09:03:38;;;;;;;7.57;1.38;;;21.90;99.90;;;;;;5040982;28;20039;-55
2022/10/03 09:06:44;;;;;;;5.10;1.40;;;22.10;99.90;;;;;;5068798;28;20955;-55
2022/10/03 09:09:48;;;;;;;7.38;1.40;;;22.10;99.90;;;;;;5069286;28;20134;-57
2022/10/03 09:12:22;;;;;;;7.47;1.55;;;22.50;99.90;;;;;;5069658;28;20506;-57
2022/10/03 09:14:54;;;;;;;6.72;1.80;;;22.90;99.90;;;;;;5073780;28;20793;-57
2022/10/03 09:17:45;;;;;;;7.43;1.77;;;22.90;99.90;;;;;;5070788;28;20040;-57
2022/10/03 09:20:17;;;;;;;4.68;1.27;;;22.80;99.90;;;;;;5077468;28;20050;-57
2022/10/03 09:23:02;;;;;;;6.47;1.02;;;22.90;99.90;;;;;;5069975;28;20569;-57
2022/10/03 09:25:37;;;;;;;8.30;1.73;;;23.30;99.90;;;;;;5075775;28;20774;-56
2022/10/03 09:28:19;;;;;;;10.68;1.67;;;22.90;99.90;;;;;;5069795;28;20044;-56
2022/10/03 09:31:02;;;;;;;7.72;1.40;;;23.30;99.90;;;;;;5075306;28;20093;-57
2022/10/03 09:33:50;;;;;;;8.15;1.63;;;23.50;99.90;;;;;;5071492;28;20036;-58
2022/10/03 09:36:42;;;;;;;8.27;1.52;;;23.90;99.90;;;;;;5055501;28;20048;-57
2022/10/03 09:39:39;;;;;;;7.03;1.15;;;23.80;99.90;;;;;;5066728;28;20044;-57
2022/10/03 09:42:33;;;;;;;6.90;2.00;;;24.00;99.20;;;;;;5063785;28;20495;-56
2022/10/03 09:45:24;;;;;;;7.22;1.58;;;23.70;98.30;;;;;;5067018;28;20117;-52
2022/10/03 09:48:19;;;;;;;9.10;2.22;;;23.70;99.50;;;;;;5055043;28;20129;-53
2022/10/03 09:51:00;;;;;;;7.40;1.35;;;23.40;97.60;;;;;;5064911;28;20819;-53
2022/10/03 09:53:38;;;;;;;6.30;1.63;;;24.30;98.50;;;;;;5069445;28;20487;-53
2022/10/03 09:56:32;;;;;;;8.05;1.55;;;24.80;96.70;;;;;;5068132;28;20090;-51
2022/10/03 09:59:43;;;;;;;10.32;1.60;;;25.10;93.90;;;;;;5066513;28;20427;-53
2022/10/03 10:02:46;;;;;;;6.05;1.55;;;25.10;93.50;;;;;;5042706;28;20098;-53
2022/10/03 10:05:33;;;;;;;4.88;1.10;;;24.70;92.00;;;;;;5061499;28;20044;-54
2022/10/03 10:08:15;;;;;;;6.80;1.27;;;24.40;90.90;;;;;;5071268;28;20052;-55
2022/10/03 10:10:53;;;;;;;;;;;24.30;92.20;;;;;;5070808;28;20067;-53
2022/10/03 10:13:53;;;;;;;7.00;1.55;;;23.50;94.20;;;;;;5072016;28;19924;-52
2022/10/03 10:16:55;;;;;;;6.03;1.50;;;23.50;94.60;;;;;;5072009;28;20138;-51
2022/10/03 10:19:21;;;;;;;5.70;1.17;;;23.50;94.50;;;;;;5063022;28;20051;-52
2022/10/03 10:21:50;;;;;;;5.97;1.13;;;23.00;96.40;;;;;;5073943;28;20060;-54
2022/10/03 10:24:50;;;;;;;5.75;1.27;;;22.80;95.90;;;;;;5071543;28;20047;-45
2022/10/03 10:27:16;;;;;;;4.75;1.00;;;23.00;97.40;;;;;;5067978;28;20051;-45
2022/10/03 10:30:12;;;;;;;7.80;1.33;;;23.00;97.80;;;;;;5070962;28;20142;-43
2022/10/03 10:32:59;;;;;;;5.85;1.13;;;22.80;97.60;;;;;;5070480;28;20039;-46
2022/10/03 10:35:31;;;;;;;6.57;1.20;;;23.30;96.10;;;;;;5070711;28;20055;-45
2022/10/03 10:38:36;;;;;;;7.40;1.63;;;23.30;95.30;;;;;;5057066;28;20059;-47
2022/10/03 10:41:24;;;;;;;4.90;1.40;;;23.30;94.30;;;;;;5070464;28;20092;-43
2022/10/03 10:44:08;;;;;;;5.10;1.95;;;23.30;94.10;;;;;;5070385;28;20404;-43
2022/10/03 10:46:44;;;;;;;6.97;1.20;;;23.70;93.50;;;;;;5069839;28;20052;-47
2022/10/03 10:49:22;;;;;;;8.23;2.13;;;23.70;92.20;;;;;;5039541;28;20044;-46
2022/10/03 10:52:11;;;;;;;6.10;1.30;;;23.60;92.30;;;;;;5071509;28;20040;-43
2022/10/03 10:54:44;;;;;;;8.57;1.85;;;23.20;92.00;;;;;;5070034;28;20056;-44
2022/10/03 10:57:21;;;;;;;4.43;1.00;;;22.80;91.60;;;;;;5070743;28;20055;-45
2022/10/03 11:00:04;;;;;;;6.45;1.02;;;22.80;92.40;;;;;;5052748;28;20570;-44
2022/10/03 11:02:45;;;;;;;5.90;1.55;;;23.30;91.40;;;;;;5018548;28;20712;-54
2022/10/03 11:05:34;;;;;;;5.85;1.38;;;23.30;91.30;;;;;;5055162;28;20091;-54
2022/10/03 11:08:34;;;;;;;7.10;1.33;;;23.50;91.10;;;;;;5079297;28;20048;-45
2022/10/03 11:11:18;;;;;;;10.10;5.70;;;24.00;91.00;;;;;;5069575;28;20040;-54
2022/10/03 11:14:12;;;;;;;6.88;3.47;;;24.10;90.90;;;;;;5070505;28;20102;-54
2022/10/03 11:17:03;;;;;;;4.75;1.20;;;24.20;89.60;;;;;;5070043;28;20059;-53
2022/10/03 11:19:57;;;;;;;7.32;1.45;;;24.50;85.80;;;;;;5066260;28;20051;-55
2022/10/03 11:22:54;;;;;;;6.55;1.50;;;23.80;85.30;;;;;;5070156;28;20050;-54
2022/10/03 11:25:50;;;;;;;6.90;1.55;;;23.50;88.20;;;;;;5073090;28;20055;-54
2022/10/03 11:28:31;;;;;;;7.38;1.50;;;22.50;90.30;;;;;;5018510;28;20125;-53
2022/10/03 11:31:19;;;;;;;5.20;1.67;;;21.90;94.00;;;;;;5064409;28;20049;-55
2022/10/03 11:34:00;;;;;;;7.65;1.10;;;21.60;96.50;;;;;;5068904;28;20052;-55
2022/10/03 11:36:53;;;;;;;6.97;1.40;;;21.30;96.70;;;;;;5069467;28;20059;-57
2022/10/03 11:39:52;;;;;;;5.63;1.27;;;21.50;98.80;;;;;;5070589;28;20044;-55
2022/10/03 11:42:52;;;;;;;9.10;1.65;;;21.90;97.30;;;;;;5073073;28;20040;-55
2022/10/03 11:45:54;;;;;;;6.50;1.63;;;22.20;98.10;;;;;;5069081;28;20083;-55
2022/10/03 11:48:41;;;;;;;7.53;1.65;;;22.20;96.70;;;;;;5076144;28;20666;-56
2022/10/03 11:51:10;;;;;;;8.57;1.77;;;22.30;97.60;;;;;;5071694;28;20048;-54
2022/10/03 11:53:50;;;;;;;5.07;1.10;;;22.50;97.20;;;;;;5075226;28;20151;-46
2022/10/03 11:56:42;;;;;;;4.20;1.70;;;22.50;95.90;;;;;;5073140;28;20047;-43
2022/10/03 11:59:31;;;;;;;6.45;1.55;;;22.40;95.60;;;;;;5044183;28;20796;-55
2022/10/03 12:02:00;;;;;;;8.13;1.45;;;21.90;97.00;;;;;;5075267;28;20870;-44
2022/10/03 12:04:43;;;;;;;6.68;1.75;;;22.30;97.70;;;;;;5055898;28;20081;-44
2022/10/03 12:10:45;;;;;;;4.93;1.33;;;23.00;96.30;;;;;;5066458;28;20847;-44
2022/10/03 12:13:21;;;;;;;4.25;1.30;;;23.40;94.50;;;;;;5076222;28;20105;-45
2022/10/03 12:15:53;;;;;;;8.73;1.55;;;23.60;94.70;;;;;;5076403;28;20048;-43
2022/10/03 12:18:38;;;;;;;4.68;1.00;;;23.60;92.70;;;;;;5069137;28;20048;-47
2022/10/03 12:21:11;;;;;;;3.75;0.88;;;23.70;92.20;;;;;;5075997;28;20040;-46
2022/10/03 12:23:56;;;;;;;4.50;1.13;;;23.40;92.00;;;;;;5080245;28;20048;-45
2022/10/03 12:26:37;;;;;;;4.55;1.30;;;23.20;92.50;;;;;;5072202;28;20043;-57
2022/10/03 12:29:06;;;;;;;3.60;0.88;;;23.30;92.30;;;;;;5074074;28;20125;-55
2022/10/03 12:31:36;;;;;;;5.15;1.25;;;23.40;92.40;;;;;;5069469;28;20665;-56
2022/10/03 12:34:17;;;;;;;5.40;1.38;;;23.50;91.50;;;;;;5072221;28;20056;-56
2022/10/03 12:37:16;;;;;;;6.45;1.27;;;23.50;91.30;;;;;;5071125;28;20075;-56
2022/10/03 12:39:59;;;;;;;6.03;1.10;;;23.60;90.70;;;;;;5074019;28;20585;-52
2022/10/03 12:42:29;;;;;;;7.03;1.45;;;23.70;91.30;;;;;;5075752;28;20652;-55
2022/10/03 12:45:18;;;;;;;6.10;1.35;;;23.80;91.60;;;;;;5072047;28;20056;-55
2022/10/03 12:47:51;;;;;;;6.80;1.42;;;23.80;92.20;;;;;;5067012;28;20091;-55
2022/10/03 12:51:00;;;;;;;6.32;1.10;;;23.20;92.40;;;;;;5072138;28;20044;-54
2022/10/03 12:53:37;;;;;;;4.80;1.33;;;22.50;92.70;;;;;;5073450;28;20105;-55
2022/10/03 12:56:17;;;;;;;5.13;1.10;;;22.30;94.00;;;;;;5074284;28;20036;-58
2022/10/03 12:59:02;;;;;;;7.85;1.20;;;22.60;94.00;;;;;;5072591;28;20044;-55
2022/10/03 13:01:37;;;;;;;5.25;1.30;;;21.90;94.60;;;;;;5075867;28;20814;-55
2022/10/03 13:04:31;;;;;;;4.25;1.02;;;21.50;96.60;;;;;;5071208;28;20060;-54
2022/10/03 13:07:00;;;;;;;5.80;1.10;;;21.00;98.50;;;;;;5076597;28;20487;-53
2022/10/03 13:09:57;;;;;;;4.35;1.15;;;21.10;99.90;;;;;;5072457;28;20488;-54
2022/10/03 13:12:50;;;;;;;4.70;1.17;;;21.10;99.90;;;;;;5068531;28;20052;-54
2022/10/03 13:15:51;;;;;;;10.05;1.23;;;21.70;99.90;;;;;;5075458;28;20055;-44
2022/10/03 13:18:41;;;;;;;7.20;1.40;;;22.20;99.60;;;;;;5072924;28;20101;-55
2022/10/03 13:21:10;;;;;;;6.85;1.60;;;22.20;98.80;;;;;;5072229;28;20048;-54
2022/10/03 13:23:48;;;;;;;6.35;1.25;;;22.20;98.40;;;;;;5074432;28;20048;-55
2022/10/03 13:26:36;;;;;;;6.53;1.70;;;22.40;97.70;;;;;;5076627;28;20131;-54
2022/10/03 13:29:18;;;;;;;7.40;1.20;;;22.60;97.60;;;;;;5075393;28;20044;-46
2022/10/03 13:32:06;;;;;;;7.03;1.70;;;22.50;97.80;;;;;;5084465;28;20165;-43
2022/10/03 13:38:36;;;;;;;6.43;1.27;;;22.00;98.10;;;;;;5069791;28;20120;-43
2022/10/03 13:41:17;;;;;;;8.25;1.73;;;22.00;99.30;;;;;;5030252;28;20059;-44
2022/10/03 13:43:50;;;;;;;6.00;1.42;;;21.50;99.40;;;;;;5074903;28;20048;-44
2022/10/03 13:46:52;;;;;;;7.18;1.10;;;21.80;99.70;;;;;;5038409;28;20040;-43
2022/10/03 13:49:30;;;;;;;8.68;1.33;;;22.10;98.70;;;;;;5070897;28;20047;-43
2022/10/03 13:52:09;;;;;;;6.93;1.33;;;21.90;98.90;;;;;;5083559;28;20663;-43
2022/10/03 13:54:53;;;;;;;5.63;1.52;;;22.40;98.70;;;;;;5067172;28;20044;-42
2022/10/03 13:57:38;;;;;;;5.70;1.25;;;22.40;98.20;;;;;;5072955;28;20398;-45
2022/10/03 14:00:14;;;;;;;4.15;1.17;;;22.20;97.50;;;;;;5073689;28;21028;-44
2022/10/03 14:02:50;;;;;;;5.07;1.48;;;22.00;97.90;;;;;;5076055;28;20052;-41
2022/10/03 14:05:44;;;;;;;4.35;1.38;;;22.10;98.30;;;;;;5071852;28;20734;-55
2022/10/03 14:08:58;;;;;;;5.63;1.15;;;21.90;99.20;;;;;;5092937;28;20052;-54
2022/10/03 14:11:53;;;;;;;5.15;1.30;;;21.60;98.80;;;;;;5065035;28;20506;-54
2022/10/03 14:14:44;;;;;;;6.70;1.45;;;21.40;99.90;;;;;;5066358;28;20071;-54
2022/10/03 14:17:28;;;;;;;5.15;1.40;;;21.10;99.90;;;;;;5053682;28;20051;-53
2022/10/03 14:20:35;;;;;;;5.28;1.30;;;20.80;99.90;;;;;;5073757;28;20388;-54
2022/10/03 14:23:23;;;;;;;5.90;1.52;;;20.80;99.90;;;;;;5065490;28;20048;-49
2022/10/03 14:26:31;;;;;;;7.53;1.52;;;20.60;99.90;;;;;;5072078;28;20052;-55
2022/10/03 14:28:57;;;;;;;5.70;1.23;;;20.50;99.90;;;;;;5062754;28;20058;-54
2022/10/03 14:31:30;;;;;;;5.35;1.10;;;20.30;99.90;;;;;;5075228;28;20048;-54
2022/10/03 14:34:17;;;;;;;9.57;4.88;;;20.40;99.90;;;;;;5071221;28;20049;-55
2022/10/03 14:36:51;;;;;;;6.28;1.60;;;20.70;99.90;;;;;;5067882;28;20048;-53
2022/10/03 14:39:45;;;;;;;5.30;1.38;;;20.90;99.90;;;;;;5073760;28;20113;-55
2022/10/03 14:42:39;;;;;;;5.63;1.10;;;21.10;99.90;;;;;;5066703;28;20559;-55
2022/10/03 14:45:20;;;;;;;5.50;1.05;;;21.20;99.90;;;;;;5065914;28;20048;-47
2022/10/03 14:47:55;;;;;;;11.00;4.35;;;21.00;99.90;;;;;;5068766;28;20623;-44